createdAt,value
2023-01-29T00:00:18.942Z,101465.44
2023-01-29T00:01:20.803Z,101470.00
2023-01-29T00:02:23.899Z,101475.41
2023-01-29T00:03:25.720Z,101477.16
2023-01-29T00:04:29.719Z,101462.84
2023-01-29T00:05:31.522Z,101470.84
2023-01-29T00:06:34.399Z,101464.69
2023-01-29T00:07:36.086Z,101452.25
2023-01-29T00:08:39.503Z,101455.09
2023-01-29T00:09:41.319Z,101460.59
2023-01-29T00:10:44.046Z,101459.78
2023-01-29T00:11:47.026Z,101465.03
2023-01-29T00:12:48.831Z,101464.94
2023-01-29T00:13:51.852Z,101466.53
2023-01-29T00:14:54.890Z,101466.41
2023-01-29T00:15:58.422Z,101470.84
2023-01-29T00:17:00.479Z,101470.00
2023-01-29T00:18:03.150Z,101468.16
2023-01-29T00:19:04.846Z,101471.84
2023-01-29T00:20:10.446Z,101471.13
2023-01-29T00:21:13.450Z,101475.78
2023-01-29T00:22:16.177Z,101479.56
2023-01-29T00:23:17.999Z,101477.00
2023-01-29T00:24:20.711Z,101475.00
2023-01-29T00:25:22.501Z,101477.72
2023-01-29T00:26:25.154Z,101484.00
2023-01-29T00:27:26.906Z,101486.59
2023-01-29T00:28:29.679Z,101486.72
2023-01-29T00:29:31.386Z,101483.03
2023-01-29T00:30:34.017Z,101486.59
2023-01-29T00:31:35.879Z,101490.28
2023-01-29T00:32:38.891Z,101486.72
2023-01-29T00:33:40.665Z,101489.66
2023-01-29T00:34:43.334Z,101490.47
2023-01-29T00:35:46.442Z,101491.81
2023-01-29T00:36:49.135Z,101487.72
2023-01-29T00:37:50.804Z,101492.41
2023-01-29T00:38:58.831Z,101495.31
2023-01-29T00:40:00.654Z,101494.59
2023-01-29T00:41:24.742Z,101496.44
2023-01-29T00:42:45.107Z,101500.00
2023-01-29T00:44:05.599Z,101494.59
2023-01-29T00:45:09.280Z,101488.31
2023-01-29T00:46:11.109Z,101488.44
2023-01-29T00:47:27.726Z,101494.72
2023-01-29T00:48:30.512Z,101489.28
2023-01-29T00:49:32.268Z,101491.03
2023-01-29T00:50:35.031Z,101486.47
2023-01-29T00:51:39.177Z,101488.06
2023-01-29T00:52:42.138Z,101491.03
2023-01-29T00:53:43.870Z,101486.38
2023-01-29T00:54:46.561Z,101489.91
2023-01-29T00:55:48.365Z,101486.38
2023-01-29T00:56:51.065Z,101478.38
2023-01-29T00:57:53.864Z,101485.38
2023-01-29T00:58:55.690Z,101480.09
2023-01-29T00:59:58.477Z,101485.25
2023-01-29T01:01:02.113Z,101488.72
2023-01-29T01:02:22.672Z,101485.00
2023-01-29T01:03:25.458Z,101473.22
2023-01-29T01:04:27.147Z,101482.97
2023-01-29T01:05:30.087Z,101475.72
2023-01-29T01:06:31.823Z,101479.38
2023-01-29T01:07:35.889Z,101468.66
2023-01-29T01:08:56.074Z,101482.19
2023-01-29T01:10:16.762Z,101469.66
2023-01-29T01:11:20.711Z,101470.50
2023-01-29T01:12:22.719Z,101467.81
2023-01-29T01:13:25.480Z,101470.41
2023-01-29T01:14:27.319Z,101469.44
2023-01-29T01:15:32.973Z,101480.13
2023-01-29T01:16:34.785Z,101475.56
2023-01-29T01:17:37.637Z,101473.84
2023-01-29T01:18:39.586Z,101479.38
2023-01-29T01:19:42.426Z,101469.53
2023-01-29T01:20:44.180Z,101473.13
2023-01-29T01:21:48.317Z,101467.59
2023-01-29T01:22:51.880Z,101459.56
2023-01-29T01:23:54.742Z,101464.13
2023-01-29T01:24:56.493Z,101461.41
2023-01-29T01:25:59.298Z,101467.59
2023-01-29T01:27:01.029Z,101462.03
2023-01-29T01:28:03.709Z,101459.31
2023-01-29T01:29:05.556Z,101464.63
2023-01-29T01:30:11.541Z,101465.41
2023-01-29T01:31:14.186Z,101463.53
2023-01-29T01:32:17.021Z,101469.81
2023-01-29T01:33:18.869Z,101467.97
2023-01-29T01:34:22.076Z,101461.69
2023-01-29T01:35:23.899Z,101460.81
2023-01-29T01:36:26.609Z,101461.81
2023-01-29T01:37:28.277Z,101455.41
2023-01-29T01:38:32.385Z,101456.28
2023-01-29T01:39:34.060Z,101451.63
2023-01-29T01:40:36.842Z,101452.34
2023-01-29T01:41:38.755Z,101463.94
2023-01-29T01:42:41.472Z,101452.13
2023-01-29T01:43:51.013Z,101451.16
2023-01-29T01:44:56.780Z,101450.13
2023-01-29T01:45:58.541Z,101451.00
2023-01-29T01:47:02.238Z,101449.16
2023-01-29T01:48:07.331Z,101443.75
2023-01-29T01:49:12.248Z,101439.97
2023-01-29T01:50:17.597Z,101445.22
2023-01-29T01:51:21.882Z,101440.56
2023-01-29T01:52:23.821Z,101448.59
2023-01-29T01:53:30.626Z,101441.31
2023-01-29T01:54:33.752Z,101434.03
2023-01-29T01:55:39.626Z,101433.06
2023-01-29T01:56:44.041Z,101433.94
2023-01-29T01:57:49.317Z,101430.97
2023-01-29T01:58:52.636Z,101430.97
2023-01-29T01:59:59.064Z,101424.56
2023-01-29T02:01:02.385Z,101415.59
2023-01-29T02:02:23.802Z,101420.03
2023-01-29T02:03:44.939Z,101415.38
2023-01-29T02:05:06.863Z,101417.94
2023-01-29T02:06:28.926Z,101415.97
2023-01-29T02:07:49.384Z,101410.56
2023-01-29T02:09:13.553Z,101418.56
2023-01-29T02:10:18.493Z,101418.69
2023-01-29T02:11:20.487Z,101417.72
2023-01-29T02:12:23.698Z,101410.56
2023-01-29T02:13:25.558Z,101415.97
2023-01-29T02:14:28.458Z,101421.38
2023-01-29T02:15:30.149Z,101414.25
2023-01-29T02:16:35.013Z,101411.69
2023-01-29T02:17:36.918Z,101414.38
2023-01-29T02:18:39.829Z,101414.50
2023-01-29T02:19:47.967Z,101414.50
2023-01-29T02:21:05.844Z,101413.63
2023-01-29T02:22:25.836Z,101407.34
2023-01-29T02:23:59.458Z,101404.63
2023-01-29T02:25:39.632Z,101407.34
2023-01-29T02:26:54.483Z,101408.22
2023-01-29T02:28:22.617Z,101407.34
2023-01-29T02:29:33.294Z,101407.34
2023-01-29T02:30:39.304Z,101402.81
2023-01-29T02:31:44.434Z,101407.34
2023-01-29T02:32:58.391Z,101403.78
2023-01-29T02:34:07.554Z,101406.47
2023-01-29T02:35:28.931Z,101403.88
2023-01-29T02:36:34.970Z,101402.91
2023-01-29T02:37:40.338Z,101412.00
2023-01-29T02:38:46.030Z,101411.19
2023-01-29T02:39:54.376Z,101415.84
2023-01-29T02:40:58.588Z,101415.84
2023-01-29T02:42:03.968Z,101414.09
2023-01-29T02:43:18.521Z,101404.25
2023-01-29T02:44:24.808Z,101415.09
2023-01-29T02:45:32.994Z,101414.25
2023-01-29T02:46:39.352Z,101423.34
2023-01-29T02:47:45.119Z,101423.47
2023-01-29T02:48:55.499Z,101426.28
2023-01-29T02:50:02.724Z,101425.41
2023-01-29T02:51:08.056Z,101425.56
2023-01-29T02:52:15.236Z,101436.38
2023-01-29T02:53:20.046Z,101434.53
2023-01-29T02:54:24.862Z,101437.25
2023-01-29T02:55:33.227Z,101435.41
2023-01-29T02:56:37.758Z,101434.53
2023-01-29T02:57:44.532Z,101433.69
2023-01-29T02:58:52.214Z,101443.88
2023-01-29T02:59:57.536Z,101444.00
2023-01-29T03:01:03.111Z,101448.91
2023-01-29T03:02:09.603Z,101438.31
2023-01-29T03:03:14.728Z,101458.59
2023-01-29T03:04:20.895Z,101457.94
2023-01-29T03:05:27.740Z,101455.84
2023-01-29T03:06:34.148Z,101456.28
2023-01-29T03:07:42.759Z,101454.91
2023-01-29T03:08:50.109Z,101457.09
2023-01-29T03:09:53.259Z,101461.88
2023-01-29T03:10:59.415Z,101460.13
2023-01-29T03:12:19.912Z,101451.41
2023-01-29T03:13:27.773Z,101455.84
2023-01-29T03:14:59.474Z,101445.88
2023-01-29T03:16:06.075Z,101458.44
2023-01-29T03:17:08.985Z,101450.19
2023-01-29T03:18:15.078Z,101451.91
2023-01-29T03:19:19.971Z,101448.13
2023-01-29T03:20:26.599Z,101448.00
2023-01-29T03:21:50.164Z,101445.06
2023-01-29T03:22:55.799Z,101437.69
2023-01-29T03:24:16.985Z,101434.88
2023-01-29T03:25:40.091Z,101442.75
2023-01-29T03:27:01.788Z,101438.13
2023-01-29T03:28:23.309Z,101444.25
2023-01-29T03:29:43.683Z,101445.88
2023-01-29T03:31:07.418Z,101444.06
2023-01-29T03:32:10.923Z,101454.88
2023-01-29T03:33:15.513Z,101455.84
2023-01-29T03:34:24.170Z,101458.56
2023-01-29T03:35:33.540Z,101459.66
2023-01-29T03:36:39.934Z,101459.88
2023-01-29T03:37:43.805Z,101461.81
2023-01-29T03:38:46.600Z,101463.66
2023-01-29T03:39:48.449Z,101460.09
2023-01-29T03:40:54.843Z,101462.81
2023-01-29T03:41:59.365Z,101458.13
2023-01-29T03:43:10.196Z,101461.63
2023-01-29T03:44:15.000Z,101458.91
2023-01-29T03:45:27.349Z,101459.66
2023-01-29T03:46:33.420Z,101464.94
2023-01-29T03:47:44.590Z,101463.97
2023-01-29T03:48:53.366Z,101456.72
2023-01-29T03:49:59.098Z,101460.16
2023-01-29T03:51:07.850Z,101466.31
2023-01-29T03:52:16.037Z,101456.47
2023-01-29T03:53:22.690Z,101456.47
2023-01-29T03:54:28.282Z,101455.59
2023-01-29T03:55:35.373Z,101452.78
2023-01-29T03:56:44.669Z,101449.09
2023-01-29T03:57:53.705Z,101446.28
2023-01-29T03:58:59.783Z,101448.00
2023-01-29T04:00:05.998Z,101446.28
2023-01-29T04:01:12.635Z,101448.75
2023-01-29T04:02:19.334Z,101433.38
2023-01-29T04:03:23.927Z,101438.78
2023-01-29T04:04:28.254Z,101436.81
2023-01-29T04:05:34.702Z,101434.00
2023-01-29T04:06:37.851Z,101431.19
2023-01-29T04:07:41.916Z,101435.63
2023-01-29T04:08:48.313Z,101443.59
2023-01-29T04:09:52.796Z,101440.03
2023-01-29T04:10:57.047Z,101454.44
2023-01-29T04:12:03.798Z,101454.44
2023-01-29T04:13:07.077Z,101451.88
2023-01-29T04:14:10.539Z,101456.41
2023-01-29T04:15:15.346Z,101446.66
2023-01-29T04:16:21.806Z,101452.31
2023-01-29T04:17:29.930Z,101451.56
2023-01-29T04:18:32.651Z,101452.69
2023-01-29T04:19:35.044Z,101450.09
2023-01-29T04:20:37.736Z,101442.94
2023-01-29T04:21:40.079Z,101440.22
2023-01-29T04:22:47.066Z,101439.38
2023-01-29T04:23:48.765Z,101427.81
2023-01-29T04:24:52.299Z,101430.38
2023-01-29T04:26:10.512Z,101427.66
2023-01-29T04:27:24.641Z,101414.16
2023-01-29T04:28:29.148Z,101407.03
2023-01-29T04:29:41.555Z,101409.94
2023-01-29T04:30:47.636Z,101400.97
2023-01-29T04:31:55.597Z,101401.84
2023-01-29T04:33:13.431Z,101407.25
2023-01-29T04:34:21.853Z,101397.66
2023-01-29T04:35:30.863Z,101396.75
2023-01-29T04:36:37.911Z,101395.88
2023-01-29T04:37:44.192Z,101405.00
2023-01-29T04:38:54.703Z,101408.28
2023-01-29T04:40:01.306Z,101409.59
2023-01-29T04:41:07.128Z,101407.34
2023-01-29T04:42:13.567Z,101401.41
2023-01-29T04:43:22.290Z,101396.25
2023-01-29T04:44:34.380Z,101394.50
2023-01-29T04:45:45.477Z,101392.69
2023-01-29T04:46:49.974Z,101389.84
2023-01-29T04:48:02.142Z,101398.72
2023-01-29T04:49:14.838Z,101402.16
2023-01-29T04:50:19.508Z,101409.53
2023-01-29T04:51:25.199Z,101405.94
2023-01-29T04:52:34.656Z,101412.47
2023-01-29T04:53:40.940Z,101414.41
2023-01-29T04:54:53.865Z,101421.91
2023-01-29T04:55:58.682Z,101416.94
2023-01-29T04:57:07.564Z,101416.53
2023-01-29T04:58:14.653Z,101421.53
2023-01-29T04:59:21.160Z,101414.50
2023-01-29T05:00:26.038Z,101421.75
2023-01-29T05:01:29.855Z,101427.91
2023-01-29T05:02:33.582Z,101425.13
2023-01-29T05:03:37.626Z,101433.00
2023-01-29T05:04:41.917Z,101432.00
2023-01-29T05:05:47.135Z,101439.16
2023-01-29T05:06:49.534Z,101437.28
2023-01-29T05:07:52.397Z,101446.06
2023-01-29T05:08:55.265Z,101443.34
2023-01-29T05:09:58.138Z,101444.31
2023-01-29T05:11:00.153Z,101439.03
2023-01-29T05:12:03.488Z,101441.00
2023-01-29T05:13:10.802Z,101435.69
2023-01-29T05:14:15.586Z,101439.25
2023-01-29T05:15:20.541Z,101444.66
2023-01-29T05:16:26.743Z,101444.66
2023-01-29T05:17:28.816Z,101448.56
2023-01-29T05:18:32.074Z,101442.06
2023-01-29T05:19:33.887Z,101439.34
2023-01-29T05:20:39.928Z,101440.13
2023-01-29T05:21:44.060Z,101438.06
2023-01-29T05:22:48.169Z,101428.97
2023-01-29T05:24:11.163Z,101428.63
2023-01-29T05:25:23.061Z,101428.38
2023-01-29T05:26:43.488Z,101422.00
2023-01-29T05:28:03.849Z,101419.06
2023-01-29T05:29:06.557Z,101420.69
2023-01-29T05:30:10.368Z,101419.56
2023-01-29T05:31:13.101Z,101424.00
2023-01-29T05:32:15.891Z,101420.22
2023-01-29T05:33:19.783Z,101409.53
2023-01-29T05:34:21.567Z,101411.88
2023-01-29T05:35:24.302Z,101412.75
2023-01-29T05:36:27.427Z,101413.59
2023-01-29T05:37:30.162Z,101419.88
2023-01-29T05:38:32.024Z,101416.31
2023-01-29T05:39:34.907Z,101419.88
2023-01-29T05:40:36.967Z,101420.00
2023-01-29T05:41:39.610Z,101425.41
2023-01-29T05:42:41.378Z,101417.28
2023-01-29T05:43:44.088Z,101420.00
2023-01-29T05:44:45.961Z,101419.88
2023-01-29T05:45:53.557Z,101420.75
2023-01-29T05:46:55.363Z,101423.22
2023-01-29T05:47:58.231Z,101422.09
2023-01-29T05:48:59.991Z,101424.94
2023-01-29T05:50:02.714Z,101424.19
2023-01-29T05:51:05.363Z,101416.31
2023-01-29T05:52:09.439Z,101418.41
2023-01-29T05:53:12.157Z,101421.41
2023-01-29T05:54:14.169Z,101419.06
2023-01-29T05:55:17.102Z,101422.97
2023-01-29T05:56:18.940Z,101424.81
2023-01-29T05:57:22.147Z,101422.09
2023-01-29T05:58:23.979Z,101423.94
2023-01-29T05:59:26.856Z,101423.13
2023-01-29T06:00:28.594Z,101422.34
2023-01-29T06:01:31.323Z,101427.13
2023-01-29T06:02:33.204Z,101427.59
2023-01-29T06:03:38.884Z,101430.53
2023-01-29T06:04:40.625Z,101424.47
2023-01-29T06:05:43.333Z,101431.84
2023-01-29T06:06:45.159Z,101429.34
2023-01-29T06:07:49.351Z,101425.78
2023-01-29T06:08:53.446Z,101423.81
2023-01-29T06:09:56.157Z,101430.44
2023-01-29T06:10:57.892Z,101428.84
2023-01-29T06:12:00.695Z,101423.53
2023-01-29T06:13:02.549Z,101418.13
2023-01-29T06:14:05.237Z,101414.47
2023-01-29T06:15:07.737Z,101410.75
2023-01-29T06:16:11.786Z,101412.63
2023-01-29T06:17:13.549Z,101415.44
2023-01-29T06:18:16.228Z,101411.75
2023-01-29T06:19:18.289Z,101422.44
2023-01-29T06:20:21.283Z,101419.72
2023-01-29T06:21:23.057Z,101417.78
2023-01-29T06:22:25.778Z,101419.63
2023-01-29T06:23:29.159Z,101414.22
2023-01-29T06:24:32.832Z,101420.59
2023-01-29T06:25:34.706Z,101413.69
2023-01-29T06:26:37.479Z,101421.81
2023-01-29T06:27:39.201Z,101416.50
2023-01-29T06:28:42.391Z,101422.78
2023-01-29T06:29:45.151Z,101428.41
2023-01-29T06:30:46.886Z,101425.81
2023-01-29T06:31:49.750Z,101425.19
2023-01-29T06:32:51.570Z,101430.59
2023-01-29T06:33:54.300Z,101429.97
2023-01-29T06:34:56.040Z,101428.31
2023-01-29T06:35:58.980Z,101422.19
2023-01-29T06:37:00.655Z,101421.19
2023-01-29T06:38:03.345Z,101419.34
2023-01-29T06:39:06.430Z,101416.66
2023-01-29T06:40:10.151Z,101409.31
2023-01-29T06:41:13.247Z,101413.63
2023-01-29T06:42:15.941Z,101406.38
2023-01-29T06:43:17.764Z,101416.09
2023-01-29T06:44:20.490Z,101409.59
2023-01-29T06:45:22.238Z,101404.97
2023-01-29T06:46:24.983Z,101407.53
2023-01-29T06:47:28.720Z,101405.59
2023-01-29T06:48:30.998Z,101413.69
2023-01-29T06:49:33.701Z,101409.94
2023-01-29T06:50:35.401Z,101413.47
2023-01-29T06:51:38.199Z,101408.91
2023-01-29T06:52:39.926Z,101416.06
2023-01-29T06:53:45.336Z,101410.56
2023-01-29T06:54:49.984Z,101404.19
2023-01-29T06:55:52.105Z,101413.00
2023-01-29T06:56:56.225Z,101402.97
2023-01-29T06:57:57.992Z,101410.94
2023-01-29T06:59:01.012Z,101406.41
2023-01-29T07:00:02.819Z,101411.81
2023-01-29T07:01:06.804Z,101410.84
2023-01-29T07:02:09.406Z,101409.88
2023-01-29T07:03:12.247Z,101410.72
2023-01-29T07:04:13.952Z,101413.44
2023-01-29T07:05:16.655Z,101413.31
2023-01-29T07:06:19.418Z,101413.19
2023-01-29T07:07:21.134Z,101414.94
2023-01-29T07:08:23.821Z,101414.69
2023-01-29T07:09:25.526Z,101419.03
2023-01-29T07:10:29.710Z,101421.59
2023-01-29T07:11:31.931Z,101422.47
2023-01-29T07:12:34.669Z,101424.19
2023-01-29T07:13:36.435Z,101426.78
2023-01-29T07:14:39.126Z,101436.50
2023-01-29T07:15:40.843Z,101433.69
2023-01-29T07:16:43.599Z,101436.28
2023-01-29T07:17:45.370Z,101436.28
2023-01-29T07:18:48.106Z,101440.81
2023-01-29T07:19:49.813Z,101439.84
2023-01-29T07:20:52.475Z,101443.28
2023-01-29T07:21:54.331Z,101442.31
2023-01-29T07:22:57.880Z,101454.97
2023-01-29T07:23:59.797Z,101454.00
2023-01-29T07:25:02.645Z,101452.28
2023-01-29T07:26:06.302Z,101456.72
2023-01-29T07:27:09.067Z,101461.16
2023-01-29T07:28:10.878Z,101461.97
2023-01-29T07:29:13.541Z,101457.44
2023-01-29T07:30:16.217Z,101454.72
2023-01-29T07:31:19.153Z,101455.50
2023-01-29T07:32:20.941Z,101458.19
2023-01-29T07:33:23.733Z,101451.81
2023-01-29T07:34:25.602Z,101449.97
2023-01-29T07:35:28.267Z,101454.38
2023-01-29T07:36:30.044Z,101448.00
2023-01-29T07:37:32.787Z,101448.78
2023-01-29T07:38:34.611Z,101446.78
2023-01-29T07:39:37.308Z,101447.44
2023-01-29T07:40:39.039Z,101446.34
2023-01-29T07:41:43.077Z,101451.75
2023-01-29T07:42:45.556Z,101447.09
2023-01-29T07:43:48.350Z,101449.66
2023-01-29T07:44:50.090Z,101446.00
2023-01-29T07:45:52.924Z,101444.03
2023-01-29T07:46:54.693Z,101450.31
2023-01-29T07:47:57.813Z,101451.19
2023-01-29T07:48:59.492Z,101449.31
2023-01-29T07:50:02.222Z,101450.31
2023-01-29T07:51:04.186Z,101448.47
2023-01-29T07:52:06.941Z,101449.31
2023-01-29T07:53:15.360Z,101450.19
2023-01-29T07:54:18.163Z,101460.03
2023-01-29T07:55:20.018Z,101451.91
2023-01-29T07:56:22.700Z,101454.63
2023-01-29T07:57:25.756Z,101450.19
2023-01-29T07:58:28.526Z,101449.31
2023-01-29T07:59:30.241Z,101445.78
2023-01-29T08:00:33.621Z,101441.56
2023-01-29T08:01:36.369Z,101439.84
2023-01-29T08:02:38.171Z,101434.66
2023-01-29T08:03:40.873Z,101429.50
2023-01-29T08:04:42.576Z,101432.19
2023-01-29T08:05:45.513Z,101426.03
2023-01-29T08:06:47.310Z,101416.31
2023-01-29T08:08:05.768Z,101411.88
2023-01-29T08:09:09.581Z,101410.16
2023-01-29T08:10:11.885Z,101411.88
2023-01-29T08:11:15.367Z,101416.31
2023-01-29T08:12:18.088Z,101421.47
2023-01-29T08:13:21.380Z,101422.09
2023-01-29T08:14:24.068Z,101423.84
2023-01-29T08:15:26.315Z,101427.31
2023-01-29T08:16:29.066Z,101427.06
2023-01-29T08:17:30.750Z,101434.97
2023-01-29T08:18:33.447Z,101439.16
2023-01-29T08:19:35.202Z,101433.50
2023-01-29T08:20:37.943Z,101439.53
2023-01-29T08:21:39.660Z,101451.75
2023-01-29T08:22:42.313Z,101447.84
2023-01-29T08:23:45.010Z,101463.63
2023-01-29T08:24:53.727Z,101456.38
2023-01-29T08:26:03.584Z,101468.78
2023-01-29T08:27:05.321Z,101466.84
2023-01-29T08:28:08.717Z,101467.44
2023-01-29T08:29:12.513Z,101467.97
2023-01-29T08:30:15.877Z,101472.81
2023-01-29T08:31:20.507Z,101467.66
2023-01-29T08:32:23.268Z,101473.22
2023-01-29T08:33:38.920Z,101453.88
2023-01-29T08:34:42.059Z,101453.53
2023-01-29T08:35:45.442Z,101443.44
2023-01-29T08:36:48.331Z,101435.06
2023-01-29T08:37:54.262Z,101428.91
2023-01-29T08:38:57.090Z,101426.94
2023-01-29T08:39:58.816Z,101423.38
2023-01-29T08:41:01.744Z,101422.75
2023-01-29T08:42:03.647Z,101419.44
2023-01-29T08:43:09.440Z,101422.25
2023-01-29T08:44:12.854Z,101425.06
2023-01-29T08:45:15.686Z,101418.78
2023-01-29T08:46:18.538Z,101415.38
2023-01-29T08:47:21.306Z,101418.94
2023-01-29T08:48:23.140Z,101430.75
2023-01-29T08:49:25.920Z,101434.19
2023-01-29T08:50:27.711Z,101440.31
2023-01-29T08:51:30.556Z,101440.31
2023-01-29T08:52:32.378Z,101438.94
2023-01-29T08:53:35.054Z,101438.84
2023-01-29T08:54:37.010Z,101441.50
2023-01-29T08:55:41.458Z,101444.97
2023-01-29T08:56:44.289Z,101449.16
2023-01-29T08:57:46.103Z,101449.16
2023-01-29T08:58:48.835Z,101439.09
2023-01-29T08:59:51.879Z,101440.56
2023-01-29T09:00:54.607Z,101440.56
2023-01-29T09:01:56.312Z,101432.09
2023-01-29T09:03:00.931Z,101433.06
2023-01-29T09:04:03.657Z,101439.44
2023-01-29T09:05:06.074Z,101435.25
2023-01-29T09:06:10.042Z,101449.16
2023-01-29T09:07:11.761Z,101448.53
2023-01-29T09:08:15.442Z,101447.16
2023-01-29T09:09:17.111Z,101455.75
2023-01-29T09:10:19.814Z,101452.53
2023-01-29T09:11:22.708Z,101453.91
2023-01-29T09:12:24.579Z,101453.38
2023-01-29T09:13:27.403Z,101452.09
2023-01-29T09:14:30.116Z,101451.47
2023-01-29T09:15:33.187Z,101463.50
2023-01-29T09:16:35.934Z,101461.50
2023-01-29T09:17:37.687Z,101469.72
2023-01-29T09:18:40.360Z,101477.19
2023-01-29T09:19:43.043Z,101488.72
2023-01-29T09:20:44.754Z,101478.34
2023-01-29T09:21:47.453Z,101488.63
2023-01-29T09:22:51.942Z,101496.63
2023-01-29T09:23:54.618Z,101486.66
2023-01-29T09:24:56.355Z,101492.06
2023-01-29T09:25:59.195Z,101488.28
2023-01-29T09:27:00.951Z,101502.69
2023-01-29T09:28:03.742Z,101500.69
2023-01-29T09:29:05.607Z,101500.69
2023-01-29T09:30:09.086Z,101492.84
2023-01-29T09:31:13.231Z,101494.78
2023-01-29T09:32:16.861Z,101496.28
2023-01-29T09:33:22.487Z,101499.84
2023-01-29T09:34:24.234Z,101499.22
2023-01-29T09:35:27.029Z,101501.63
2023-01-29T09:36:29.710Z,101501.53
2023-01-29T09:37:31.544Z,101510.47
2023-01-29T09:38:34.266Z,101499.25
2023-01-29T09:39:36.006Z,101498.16
2023-01-29T09:40:44.688Z,101494.25
2023-01-29T09:41:54.092Z,101498.81
2023-01-29T09:42:58.919Z,101503.97
2023-01-29T09:44:03.861Z,101504.31
2023-01-29T09:45:11.024Z,101503.47
2023-01-29T09:46:20.825Z,101503.69
2023-01-29T09:47:24.518Z,101518.19
2023-01-29T09:48:29.332Z,101510.50
2023-01-29T09:49:35.635Z,101512.88
2023-01-29T09:50:40.784Z,101514.59
2023-01-29T09:51:47.908Z,101502.16
2023-01-29T09:52:53.409Z,101497.28
2023-01-29T09:54:04.975Z,101495.09
2023-01-29T09:55:13.281Z,101494.91
2023-01-29T09:56:19.779Z,101493.69
2023-01-29T09:57:26.329Z,101489.50
2023-01-29T09:58:31.519Z,101491.72
2023-01-29T09:59:33.239Z,101492.25
2023-01-29T10:00:38.886Z,101491.91
2023-01-29T10:01:48.575Z,101481.50
2023-01-29T10:03:04.670Z,101479.22
2023-01-29T10:04:35.026Z,101482.09
2023-01-29T10:05:51.469Z,101486.94
2023-01-29T10:07:04.669Z,101488.44
2023-01-29T10:08:21.697Z,101497.06
2023-01-29T10:09:44.816Z,101492.06
2023-01-29T10:10:50.947Z,101487.50
2023-01-29T10:12:01.775Z,101492.91
2023-01-29T10:13:12.180Z,101485.53
2023-01-29T10:14:21.044Z,101492.56
2023-01-29T10:15:33.677Z,101488.75
2023-01-29T10:16:46.828Z,101485.19
2023-01-29T10:18:05.072Z,101483.47
2023-01-29T10:19:38.068Z,101480.78
2023-01-29T10:20:56.342Z,101470.56
2023-01-29T10:22:09.263Z,101465.16
2023-01-29T10:23:19.048Z,101468.47
2023-01-29T10:24:26.703Z,101458.41
2023-01-29T10:25:29.771Z,101458.41
2023-01-29T10:26:32.152Z,101461.31
2023-01-29T10:27:38.477Z,101454.72
2023-01-29T10:28:46.239Z,101452.00
2023-01-29T10:29:50.321Z,101442.16
2023-01-29T10:30:55.433Z,101451.00
2023-01-29T10:32:04.954Z,101443.25
2023-01-29T10:33:09.809Z,101443.88
2023-01-29T10:34:15.722Z,101433.75
2023-01-29T10:35:24.410Z,101435.25
2023-01-29T10:36:34.533Z,101428.84
2023-01-29T10:37:39.915Z,101428.97
2023-01-29T10:38:45.771Z,101431.69
2023-01-29T10:39:47.797Z,101427.00
2023-01-29T10:40:57.652Z,101420.72
2023-01-29T10:42:18.793Z,101424.66
2023-01-29T10:43:28.053Z,101415.66
2023-01-29T10:44:40.131Z,101416.63
2023-01-29T10:45:46.924Z,101417.72
2023-01-29T10:47:05.856Z,101417.72
2023-01-29T10:48:42.321Z,101416.28
2023-01-29T10:50:05.540Z,101419.72
2023-01-29T10:51:17.530Z,101418.22
2023-01-29T10:52:34.807Z,101413.09
2023-01-29T10:53:49.844Z,101418.38
2023-01-29T10:55:02.072Z,101415.31
2023-01-29T10:56:22.263Z,101412.50
2023-01-29T10:57:35.483Z,101407.06
2023-01-29T10:58:41.842Z,101404.13
2023-01-29T10:59:54.833Z,101407.47
2023-01-29T11:00:57.696Z,101405.63
2023-01-29T11:02:00.715Z,101396.13
2023-01-29T11:03:26.348Z,101395.03
2023-01-29T11:04:31.635Z,101385.56
2023-01-29T11:05:37.456Z,101387.91
2023-01-29T11:06:40.259Z,101386.44
2023-01-29T11:07:42.052Z,101378.19
2023-01-29T11:08:48.390Z,101375.72
2023-01-29T11:09:53.679Z,101375.38
2023-01-29T11:11:04.457Z,101372.63
2023-01-29T11:12:12.439Z,101363.91
2023-01-29T11:13:15.308Z,101369.56
2023-01-29T11:14:22.697Z,101370.53
2023-01-29T11:15:28.985Z,101357.25
2023-01-29T11:16:33.307Z,101371.63
2023-01-29T11:17:36.022Z,101371.13
2023-01-29T11:18:57.934Z,101375.28
2023-01-29T11:19:59.696Z,101366.88
2023-01-29T11:21:04.083Z,101362.91
2023-01-29T11:22:09.185Z,101361.94
2023-01-29T11:23:33.368Z,101362.19
2023-01-29T11:24:36.058Z,101361.34
2023-01-29T11:25:37.746Z,101355.53
2023-01-29T11:26:43.264Z,101350.09
2023-01-29T11:27:46.733Z,101352.59
2023-01-29T11:28:54.849Z,101355.91
2023-01-29T11:29:57.561Z,101348.38
2023-01-29T11:30:59.379Z,101347.78
2023-01-29T11:32:04.982Z,101340.16
2023-01-29T11:33:10.549Z,101346.53
2023-01-29T11:34:20.754Z,101347.44
2023-01-29T11:35:24.553Z,101345.75
2023-01-29T11:36:37.105Z,101346.81
2023-01-29T11:37:41.601Z,101347.78
2023-01-29T11:38:43.373Z,101341.00
2023-01-29T11:39:47.494Z,101349.88
2023-01-29T11:40:50.988Z,101348.06
2023-01-29T11:41:55.905Z,101341.19
2023-01-29T11:43:13.264Z,101340.94
2023-01-29T11:44:28.008Z,101340.34
2023-01-29T11:45:33.831Z,101330.84
2023-01-29T11:46:35.599Z,101334.94
2023-01-29T11:47:38.277Z,101333.94
2023-01-29T11:48:42.748Z,101331.59
2023-01-29T11:49:49.288Z,101321.25
2023-01-29T11:50:52.961Z,101319.59
2023-01-29T11:51:57.246Z,101323.28
2023-01-29T11:52:59.557Z,101323.50
2023-01-29T11:54:03.562Z,101318.16
2023-01-29T11:55:12.038Z,101324.78
2023-01-29T11:56:19.698Z,101314.41
2023-01-29T11:57:34.072Z,101321.06
2023-01-29T11:58:36.160Z,101315.72
2023-01-29T11:59:44.193Z,101320.19
2023-01-29T12:00:47.258Z,101321.97
2023-01-29T12:01:49.979Z,101322.94
2023-01-29T12:02:55.435Z,101315.28
2023-01-29T12:03:58.185Z,101319.59
2023-01-29T12:05:06.325Z,101311.09
2023-01-29T12:06:14.881Z,101321.06
2023-01-29T12:07:19.357Z,101317.50
2023-01-29T12:08:23.492Z,101307.78
2023-01-29T12:09:28.248Z,101308.28
2023-01-29T12:10:32.986Z,101295.09
2023-01-29T12:11:36.668Z,101309.75
2023-01-29T12:12:40.807Z,101295.69
2023-01-29T12:13:44.278Z,101297.41
2023-01-29T12:14:45.972Z,101298.41
2023-01-29T12:15:49.540Z,101293.97
2023-01-29T12:16:55.113Z,101288.53
2023-01-29T12:18:04.340Z,101292.00
2023-01-29T12:19:11.524Z,101293.22
2023-01-29T12:20:17.291Z,101290.50
2023-01-29T12:21:23.200Z,101288.03
2023-01-29T12:22:30.621Z,101280.28
2023-01-29T12:23:36.478Z,101279.63
2023-01-29T12:24:43.056Z,101282.53
2023-01-29T12:25:50.676Z,101279.25
2023-01-29T12:26:57.013Z,101274.69
2023-01-29T12:28:01.135Z,101272.44
2023-01-29T12:29:25.243Z,101275.34
2023-01-29T12:30:30.923Z,101262.13